sensor_id;sensor_type;location;lat;lon;timestamp;temperature;humidity
33093;DHT22;19456;46.104;12.908;2022-11-03T00:01:08;13.90;99.90
33093;DHT22;19456;46.104;12.908;2022-11-03T00:03:33;13.90;99.90
33093;DHT22;19456;46.104;12.908;2022-11-03T00:05:59;13.90;99.90
33093;DHT22;19456;46.104;12.908;2022-11-03T00:11:03;13.90;99.90
33093;DHT22;19456;46.104;12.908;2022-11-03T00:13:29;13.80;99.90
33093;DHT22;19456;46.104;12.908;2022-11-03T00:15:54;13.80;99.90
33093;DHT22;19456;46.104;12.908;2022-11-03T00:18:20;13.70;99.90
33093;DHT22;19456;46.104;12.908;2022-11-03T00:20:53;13.70;99.90
33093;DHT22;19456;46.104;12.908;2022-11-03T00:23:19;13.60;99.90
33093;DHT22;19456;46.104;12.908;2022-11-03T00:25:44;13.60;99.90
33093;DHT22;19456;46.104;12.908;2022-11-03T00:28:10;13.60;99.90
33093;DHT22;19456;46.104;12.908;2022-11-03T00:30:35;13.60;99.90
33093;DHT22;19456;46.104;12.908;2022-11-03T00:33:01;13.60;99.90
33093;DHT22;19456;46.104;12.908;2022-11-03T00:35:28;13.60;99.90
33093;DHT22;19456;46.104;12.908;2022-11-03T00:37:54;13.60;99.90
33093;DHT22;19456;46.104;12.908;2022-11-03T00:40:19;13.70;99.90
33093;DHT22;19456;46.104;12.908;2022-11-03T00:42:45;13.70;99.90
33093;DHT22;19456;46.104;12.908;2022-11-03T00:45:10;13.60;99.90
33093;DHT22;19456;46.104;12.908;2022-11-03T00:47:36;13.60;99.90
33093;DHT22;19456;46.104;12.908;2022-11-03T00:50:21;13.70;99.90
33093;DHT22;19456;46.104;12.908;2022-11-03T00:52:47;13.60;99.90
33093;DHT22;19456;46.104;12.908;2022-11-03T00:55:12;13.60;99.90
33093;DHT22;19456;46.104;12.908;2022-11-03T00:57:38;13.50;99.90
33093;DHT22;19456;46.104;12.908;2022-11-03T01:00:03;13.40;99.90
33093;DHT22;19456;46.104;12.908;2022-11-03T01:02:29;13.30;99.90
33093;DHT22;19456;46.104;12.908;2022-11-03T01:04:55;13.30;99.90
33093;DHT22;19456;46.104;12.908;2022-11-03T01:07:39;13.40;99.90
33093;DHT22;19456;46.104;12.908;2022-11-03T01:10:04;13.40;99.90
33093;DHT22;19456;46.104;12.908;2022-11-03T01:12:31;13.40;99.90
33093;DHT22;19456;46.104;12.908;2022-11-03T01:14:57;13.40;99.90
33093;DHT22;19456;46.104;12.908;2022-11-03T01:17:23;13.40;99.90
33093;DHT22;19456;46.104;12.908;2022-11-03T01:19:49;13.30;99.90
33093;DHT22;19456;46.104;12.908;2022-11-03T01:22:15;13.20;99.90
33093;DHT22;19456;46.104;12.908;2022-11-03T01:24:41;13.20;99.90
33093;DHT22;19456;46.104;12.908;2022-11-03T01:27:11;13.40;99.90
33093;DHT22;19456;46.104;12.908;2022-11-03T01:29:37;13.50;99.90
33093;DHT22;19456;46.104;12.908;2022-11-03T01:32:03;13.60;99.90
33093;DHT22;19456;46.104;12.908;2022-11-03T01:34:29;13.60;99.90
33093;DHT22;19456;46.104;12.908;2022-11-03T01:36:54;13.70;99.90
33093;DHT22;19456;46.104;12.908;2022-11-03T01:39:20;13.80;99.90
33093;DHT22;19456;46.104;12.908;2022-11-03T01:41:47;13.80;99.90
33093;DHT22;19456;46.104;12.908;2022-11-03T01:46:43;13.90;99.90
33093;DHT22;19456;46.104;12.908;2022-11-03T01:51:36;14.00;99.90
33093;DHT22;19456;46.104;12.908;2022-11-03T01:54:03;14.10;99.90
33093;DHT22;19456;46.104;12.908;2022-11-03T01:56:30;14.10;99.90
33093;DHT22;19456;46.104;12.908;2022-11-03T01:58:57;14.10;99.90
33093;DHT22;19456;46.104;12.908;2022-11-03T02:01:23;13.90;99.90
33093;DHT22;19456;46.104;12.908;2022-11-03T02:03:50;13.90;99.90
33093;DHT22;19456;46.104;12.908;2022-11-03T02:06:17;14.00;99.90
33093;DHT22;19456;46.104;12.908;2022-11-03T02:08:52;14.00;99.90
33093;DHT22;19456;46.104;12.908;2022-11-03T02:11:18;14.00;99.90
33093;DHT22;19456;46.104;12.908;2022-11-03T02:14:03;14.00;99.90
33093;DHT22;19456;46.104;12.908;2022-11-03T02:16:29;14.00;99.90
33093;DHT22;19456;46.104;12.908;2022-11-03T02:18:55;13.90;99.90
33093;DHT22;19456;46.104;12.908;2022-11-03T02:21:43;13.90;99.90
33093;DHT22;19456;46.104;12.908;2022-11-03T02:24:17;13.80;99.90
33093;DHT22;19456;46.104;12.908;2022-11-03T02:26:46;13.80;99.90
33093;DHT22;19456;46.104;12.908;2022-11-03T02:29:12;13.80;99.90
33093;DHT22;19456;46.104;12.908;2022-11-03T02:31:40;13.80;99.90
33093;DHT22;19456;46.104;12.908;2022-11-03T02:34:07;13.80;99.90
33093;DHT22;19456;46.104;12.908;2022-11-03T02:39:04;13.70;99.90
33093;DHT22;19456;46.104;12.908;2022-11-03T02:41:32;13.70;99.90
33093;DHT22;19456;46.104;12.908;2022-11-03T02:43:59;13.70;99.90
33093;DHT22;19456;46.104;12.908;2022-11-03T02:46:25;13.80;99.90
33093;DHT22;19456;46.104;12.908;2022-11-03T02:48:52;13.70;99.90
33093;DHT22;19456;46.104;12.908;2022-11-03T02:51:17;13.90;99.90
33093;DHT22;19456;46.104;12.908;2022-11-03T02:56:29;13.90;99.90
33093;DHT22;19456;46.104;12.908;2022-11-03T02:59:00;14.00;99.90
33093;DHT22;19456;46.104;12.908;2022-11-03T03:03:56;14.00;99.90
33093;DHT22;19456;46.104;12.908;2022-11-03T03:06:24;14.00;99.90
33093;DHT22;19456;46.104;12.908;2022-11-03T03:08:52;14.10;99.90
33093;DHT22;19456;46.104;12.908;2022-11-03T03:11:18;14.10;99.90
33093;DHT22;19456;46.104;12.908;2022-11-03T03:14:11;14.10;99.90
33093;DHT22;19456;46.104;12.908;2022-11-03T03:19:25;13.90;99.90
33093;DHT22;19456;46.104;12.908;2022-11-03T03:21:52;13.80;99.90
33093;DHT22;19456;46.104;12.908;2022-11-03T03:24:24;13.70;99.90
33093;DHT22;19456;46.104;12.908;2022-11-03T03:26:51;13.70;99.90
33093;DHT22;19456;46.104;12.908;2022-11-03T03:29:19;13.60;99.90
33093;DHT22;19456;46.104;12.908;2022-11-03T03:31:52;13.60;99.90
33093;DHT22;19456;46.104;12.908;2022-11-03T03:34:19;13.60;99.90
33093;DHT22;19456;46.104;12.908;2022-11-03T03:36:46;13.60;99.90
33093;DHT22;19456;46.104;12.908;2022-11-03T03:39:12;13.60;99.90
33093;DHT22;19456;46.104;12.908;2022-11-03T03:41:38;13.60;99.90
33093;DHT22;19456;46.104;12.908;2022-11-03T03:44:05;13.60;99.90
33093;DHT22;19456;46.104;12.908;2022-11-03T03:46:33;13.70;99.90
33093;DHT22;19456;46.104;12.908;2022-11-03T03:48:59;13.70;99.90
33093;DHT22;19456;46.104;12.908;2022-11-03T03:51:25;13.80;99.90
33093;DHT22;19456;46.104;12.908;2022-11-03T03:53:51;13.90;99.90
33093;DHT22;19456;46.104;12.908;2022-11-03T03:56:35;13.90;99.90
33093;DHT22;19456;46.104;12.908;2022-11-03T03:59:01;13.90;99.90
33093;DHT22;19456;46.104;12.908;2022-11-03T04:01:26;14.00;99.90
33093;DHT22;19456;46.104;12.908;2022-11-03T04:03:52;13.90;99.90
33093;DHT22;19456;46.104;12.908;2022-11-03T04:06:17;13.90;99.90
33093;DHT22;19456;46.104;12.908;2022-11-03T04:08:43;14.00;99.90
33093;DHT22;19456;46.104;12.908;2022-11-03T04:11:08;14.00;99.90
33093;DHT22;19456;46.104;12.908;2022-11-03T04:13:52;14.00;99.90
33093;DHT22;19456;46.104;12.908;2022-11-03T04:16:36;13.90;99.90
33093;DHT22;19456;46.104;12.908;2022-11-03T04:19:21;13.90;99.90
33093;DHT22;19456;46.104;12.908;2022-11-03T04:22:06;13.90;99.90
33093;DHT22;19456;46.104;12.908;2022-11-03T04:24:41;14.00;99.90
33093;DHT22;19456;46.104;12.908;2022-11-03T04:29:51;14.10;99.90
33093;DHT22;19456;46.104;12.908;2022-11-03T04:32:17;14.10;99.90
33093;DHT22;19456;46.104;12.908;2022-11-03T04:34:45;14.30;99.90
33093;DHT22;19456;46.104;12.908;2022-11-03T04:37:11;14.40;99.90
33093;DHT22;19456;46.104;12.908;2022-11-03T04:39:37;14.40;99.90
33093;DHT22;19456;46.104;12.908;2022-11-03T04:44:37;14.10;99.90
33093;DHT22;19456;46.104;12.908;2022-11-03T04:47:04;14.10;99.90
33093;DHT22;19456;46.104;12.908;2022-11-03T04:49:33;14.20;99.90
33093;DHT22;19456;46.104;12.908;2022-11-03T04:51:59;14.10;99.90
33093;DHT22;19456;46.104;12.908;2022-11-03T04:54:24;14.00;99.90
33093;DHT22;19456;46.104;12.908;2022-11-03T04:56:50;14.00;99.90
33093;DHT22;19456;46.104;12.908;2022-11-03T04:59:16;14.00;99.90
33093;DHT22;19456;46.104;12.908;2022-11-03T05:01:42;14.00;99.90
33093;DHT22;19456;46.104;12.908;2022-11-03T05:04:13;14.00;99.90
33093;DHT22;19456;46.104;12.908;2022-11-03T05:06:39;14.00;99.90
33093;DHT22;19456;46.104;12.908;2022-11-03T05:09:10;14.00;99.90
33093;DHT22;19456;46.104;12.908;2022-11-03T05:11:37;14.00;99.90
33093;DHT22;19456;46.104;12.908;2022-11-03T05:14:05;14.00;99.90
33093;DHT22;19456;46.104;12.908;2022-11-03T05:16:31;14.00;99.90
33093;DHT22;19456;46.104;12.908;2022-11-03T05:18:56;14.10;99.90
33093;DHT22;19456;46.104;12.908;2022-11-03T05:21:22;14.10;99.90
33093;DHT22;19456;46.104;12.908;2022-11-03T05:23:50;14.20;99.90
33093;DHT22;19456;46.104;12.908;2022-11-03T05:26:17;14.20;99.90
33093;DHT22;19456;46.104;12.908;2022-11-03T05:28:44;14.20;99.90
33093;DHT22;19456;46.104;12.908;2022-11-03T05:31:17;14.20;99.90
33093;DHT22;19456;46.104;12.908;2022-11-03T05:33:44;14.10;99.90
33093;DHT22;19456;46.104;12.908;2022-11-03T05:36:12;14.10;99.90
33093;DHT22;19456;46.104;12.908;2022-11-03T05:38:38;14.00;99.90
33093;DHT22;19456;46.104;12.908;2022-11-03T05:41:04;14.00;99.90
33093;DHT22;19456;46.104;12.908;2022-11-03T05:43:30;14.00;99.90
33093;DHT22;19456;46.104;12.908;2022-11-03T05:45:57;14.00;99.90
33093;DHT22;19456;46.104;12.908;2022-11-03T05:48:36;14.00;99.90
33093;DHT22;19456;46.104;12.908;2022-11-03T05:53:59;14.10;99.90
33093;DHT22;19456;46.104;12.908;2022-11-03T05:56:25;14.10;99.90
33093;DHT22;19456;46.104;12.908;2022-11-03T05:58:55;14.10;99.90
33093;DHT22;19456;46.104;12.908;2022-11-03T06:03:46;14.10;99.90
33093;DHT22;19456;46.104;12.908;2022-11-03T06:08:43;14.30;99.90
33093;DHT22;19456;46.104;12.908;2022-11-03T06:11:13;14.30;99.90
33093;DHT22;19456;46.104;12.908;2022-11-03T06:13:40;14.20;99.90
33093;DHT22;19456;46.104;12.908;2022-11-03T06:16:30;14.20;99.90
33093;DHT22;19456;46.104;12.908;2022-11-03T06:18:51;14.10;99.90
33093;DHT22;19456;46.104;12.908;2022-11-03T06:21:20;14.00;99.90
33093;DHT22;19456;46.104;12.908;2022-11-03T06:23:47;14.00;99.90
33093;DHT22;19456;46.104;12.908;2022-11-03T06:26:30;14.10;99.90
33093;DHT22;19456;46.104;12.908;2022-11-03T06:28:56;14.10;99.90
33093;DHT22;19456;46.104;12.908;2022-11-03T06:31:27;14.20;99.90
33093;DHT22;19456;46.104;12.908;2022-11-03T06:33:55;14.20;99.90
33093;DHT22;19456;46.104;12.908;2022-11-03T06:36:22;14.20;99.90
33093;DHT22;19456;46.104;12.908;2022-11-03T06:38:53;14.20;99.90
33093;DHT22;19456;46.104;12.908;2022-11-03T06:41:23;14.30;99.90
33093;DHT22;19456;46.104;12.908;2022-11-03T06:43:49;14.30;99.90
33093;DHT22;19456;46.104;12.908;2022-11-03T06:46:22;14.30;99.90
33093;DHT22;19456;46.104;12.908;2022-11-03T06:48:51;14.40;99.90
33093;DHT22;19456;46.104;12.908;2022-11-03T06:51:21;14.50;99.90
33093;DHT22;19456;46.104;12.908;2022-11-03T06:53:48;14.60;99.90
33093;DHT22;19456;46.104;12.908;2022-11-03T06:56:15;14.60;99.90
33093;DHT22;19456;46.104;12.908;2022-11-03T06:58:41;14.60;99.90
33093;DHT22;19456;46.104;12.908;2022-11-03T07:01:26;14.70;99.90
33093;DHT22;19456;46.104;12.908;2022-11-03T07:03:57;14.80;99.90
33093;DHT22;19456;46.104;12.908;2022-11-03T07:06:28;14.80;99.90
33093;DHT22;19456;46.104;12.908;2022-11-03T07:08:58;15.00;99.90
33093;DHT22;19456;46.104;12.908;2022-11-03T07:11:25;15.00;99.90
33093;DHT22;19456;46.104;12.908;2022-11-03T07:13:52;15.00;99.90
33093;DHT22;19456;46.104;12.908;2022-11-03T07:18:46;15.10;99.90
33093;DHT22;19456;46.104;12.908;2022-11-03T07:21:22;15.10;99.90
33093;DHT22;19456;46.104;12.908;2022-11-03T07:23:49;15.10;99.90
33093;DHT22;19456;46.104;12.908;2022-11-03T07:26:15;15.20;99.90
33093;DHT22;19456;46.104;12.908;2022-11-03T07:28:40;15.20;99.90
33093;DHT22;19456;46.104;12.908;2022-11-03T07:31:11;15.30;99.90
33093;DHT22;19456;46.104;12.908;2022-11-03T07:33:38;15.40;99.90
33093;DHT22;19456;46.104;12.908;2022-11-03T07:36:04;15.40;99.90
33093;DHT22;19456;46.104;12.908;2022-11-03T07:38:30;15.50;99.90
33093;DHT22;19456;46.104;12.908;2022-11-03T07:40:57;15.50;99.90
33093;DHT22;19456;46.104;12.908;2022-11-03T07:43:25;15.50;99.90
33093;DHT22;19456;46.104;12.908;2022-11-03T07:45:53;15.50;99.90
33093;DHT22;19456;46.104;12.908;2022-11-03T07:50:51;15.70;99.90
33093;DHT22;19456;46.104;12.908;2022-11-03T07:53:19;15.70;99.90
33093;DHT22;19456;46.104;12.908;2022-11-03T07:55:45;15.80;99.90
33093;DHT22;19456;46.104;12.908;2022-11-03T07:58:20;15.80;99.90
33093;DHT22;19456;46.104;12.908;2022-11-03T08:00:47;15.80;99.90
33093;DHT22;19456;46.104;12.908;2022-11-03T08:03:18;16.00;99.90
33093;DHT22;19456;46.104;12.908;2022-11-03T08:05:47;16.10;99.90
33093;DHT22;19456;46.104;12.908;2022-11-03T08:08:12;16.20;99.90
33093;DHT22;19456;46.104;12.908;2022-11-03T08:10:37;16.20;99.90
33093;DHT22;19456;46.104;12.908;2022-11-03T08:13:03;16.20;99.90
33093;DHT22;19456;46.104;12.908;2022-11-03T08:15:28;16.30;99.90
33093;DHT22;19456;46.104;12.908;2022-11-03T08:17:54;16.40;99.90
33093;DHT22;19456;46.104;12.908;2022-11-03T08:20:19;16.30;99.90
33093;DHT22;19456;46.104;12.908;2022-11-03T08:22:45;16.20;99.90
33093;DHT22;19456;46.104;12.908;2022-11-03T08:25:10;16.00;99.90
33093;DHT22;19456;46.104;12.908;2022-11-03T08:27:36;16.00;99.90
33093;DHT22;19456;46.104;12.908;2022-11-03T08:30:02;16.00;99.90
33093;DHT22;19456;46.104;12.908;2022-11-03T08:32:27;16.10;99.90
33093;DHT22;19456;46.104;12.908;2022-11-03T08:34:53;16.20;99.90
33093;DHT22;19456;46.104;12.908;2022-11-03T08:37:18;16.20;99.90
33093;DHT22;19456;46.104;12.908;2022-11-03T08:39:44;16.20;99.90
33093;DHT22;19456;46.104;12.908;2022-11-03T08:42:09;16.30;99.90
33093;DHT22;19456;46.104;12.908;2022-11-03T08:44:35;16.30;99.90
33093;DHT22;19456;46.104;12.908;2022-11-03T08:47:00;16.30;99.90
33093;DHT22;19456;46.104;12.908;2022-11-03T08:49:26;16.40;99.90
33093;DHT22;19456;46.104;12.908;2022-11-03T08:51:51;16.40;99.90
33093;DHT22;19456;46.104;12.908;2022-11-03T08:54:17;16.50;99.90
33093;DHT22;19456;46.104;12.908;2022-11-03T08:56:42;16.60;99.90
33093;DHT22;19456;46.104;12.908;2022-11-03T08:59:10;16.60;99.90
33093;DHT22;19456;46.104;12.908;2022-11-03T09:01:36;16.70;99.90
33093;DHT22;19456;46.104;12.908;2022-11-03T09:04:01;16.80;99.90
33093;DHT22;19456;46.104;12.908;2022-11-03T09:06:27;16.80;99.90
33093;DHT22;19456;46.104;12.908;2022-11-03T09:08:54;16.90;99.90
33093;DHT22;19456;46.104;12.908;2022-11-03T09:11:20;16.80;99.90
33093;DHT22;19456;46.104;12.908;2022-11-03T09:13:45;16.90;99.90
33093;DHT22;19456;46.104;12.908;2022-11-03T09:16:11;16.80;99.90
33093;DHT22;19456;46.104;12.908;2022-11-03T09:18:36;16.90;99.90
33093;DHT22;19456;46.104;12.908;2022-11-03T09:21:02;17.00;99.90
33093;DHT22;19456;46.104;12.908;2022-11-03T09:23:27;17.10;99.90
33093;DHT22;19456;46.104;12.908;2022-11-03T09:25:53;17.20;99.90
33093;DHT22;19456;46.104;12.908;2022-11-03T09:28:18;17.30;99.90
33093;DHT22;19456;46.104;12.908;2022-11-03T09:30:44;17.40;99.90
33093;DHT22;19456;46.104;12.908;2022-11-03T09:33:09;17.40;99.90
33093;DHT22;19456;46.104;12.908;2022-11-03T09:35:35;17.60;99.90
33093;DHT22;19456;46.104;12.908;2022-11-03T09:38:00;17.60;99.90
33093;DHT22;19456;46.104;12.908;2022-11-03T09:40:26;17.60;99.90
33093;DHT22;19456;46.104;12.908;2022-11-03T09:42:51;17.60;99.90
33093;DHT22;19456;46.104;12.908;2022-11-03T09:45:17;17.70;99.90
33093;DHT22;19456;46.104;12.908;2022-11-03T09:47:43;17.80;99.90
33093;DHT22;19456;46.104;12.908;2022-11-03T09:50:13;17.70;99.90
33093;DHT22;19456;46.104;12.908;2022-11-03T09:52:39;17.70;99.90
33093;DHT22;19456;46.104;12.908;2022-11-03T09:55:11;17.80;99.90
33093;DHT22;19456;46.104;12.908;2022-11-03T09:57:37;18.10;99.90
33093;DHT22;19456;46.104;12.908;2022-11-03T10:00:03;18.30;99.90
33093;DHT22;19456;46.104;12.908;2022-11-03T10:02:29;18.40;99.90
33093;DHT22;19456;46.104;12.908;2022-11-03T10:04:56;18.60;99.90
33093;DHT22;19456;46.104;12.908;2022-11-03T10:07:22;18.40;99.90
33093;DHT22;19456;46.104;12.908;2022-11-03T10:09:48;18.30;99.90
33093;DHT22;19456;46.104;12.908;2022-11-03T10:12:14;18.30;99.90
33093;DHT22;19456;46.104;12.908;2022-11-03T10:14:40;18.30;99.90
33093;DHT22;19456;46.104;12.908;2022-11-03T10:17:07;18.40;99.90
33093;DHT22;19456;46.104;12.908;2022-11-03T10:19:36;18.50;99.90
33093;DHT22;19456;46.104;12.908;2022-11-03T10:22:02;18.60;99.90
33093;DHT22;19456;46.104;12.908;2022-11-03T10:24:27;18.70;99.90
33093;DHT22;19456;46.104;12.908;2022-11-03T10:26:53;18.60;99.90
33093;DHT22;19456;46.104;12.908;2022-11-03T10:29:30;18.70;99.90
33093;DHT22;19456;46.104;12.908;2022-11-03T10:31:58;18.70;99.90
33093;DHT22;19456;46.104;12.908;2022-11-03T10:37:01;18.70;99.90
33093;DHT22;19456;46.104;12.908;2022-11-03T10:39:33;18.70;99.90
33093;DHT22;19456;46.104;12.908;2022-11-03T10:41:58;18.80;99.90
33093;DHT22;19456;46.104;12.908;2022-11-03T10:44:27;19.00;99.90
33093;DHT22;19456;46.104;12.908;2022-11-03T10:46:54;19.10;99.90
33093;DHT22;19456;46.104;12.908;2022-11-03T10:49:20;19.20;99.90
33093;DHT22;19456;46.104;12.908;2022-11-03T10:51:46;19.30;99.90
33093;DHT22;19456;46.104;12.908;2022-11-03T10:54:16;19.30;99.90
33093;DHT22;19456;46.104;12.908;2022-11-03T10:56:43;19.20;99.90
33093;DHT22;19456;46.104;12.908;2022-11-03T10:59:12;19.30;99.90
33093;DHT22;19456;46.104;12.908;2022-11-03T11:01:40;19.40;99.90
33093;DHT22;19456;46.104;12.908;2022-11-03T11:04:06;19.50;99.90
33093;DHT22;19456;46.104;12.908;2022-11-03T11:06:31;19.50;99.90
33093;DHT22;19456;46.104;12.908;2022-11-03T11:09:01;19.50;99.90
33093;DHT22;19456;46.104;12.908;2022-11-03T11:11:27;19.40;99.90
33093;DHT22;19456;46.104;12.908;2022-11-03T11:19:15;19.20;99.90
33093;DHT22;19456;46.104;12.908;2022-11-03T11:24:09;19.20;99.90
33093;DHT22;19456;46.104;12.908;2022-11-03T11:26:35;19.40;99.90
33093;DHT22;19456;46.104;12.908;2022-11-03T11:31:30;20.50;99.90
33093;DHT22;19456;46.104;12.908;2022-11-03T11:36:34;22.10;99.90
33093;DHT22;19456;46.104;12.908;2022-11-03T11:39:00;22.60;99.90
33093;DHT22;19456;46.104;12.908;2022-11-03T11:46:54;23.20;99.90
33093;DHT22;19456;46.104;12.908;2022-11-03T11:49:20;22.40;99.90
33093;DHT22;19456;46.104;12.908;2022-11-03T11:51:46;21.80;99.90
33093;DHT22;19456;46.104;12.908;2022-11-03T11:54:16;21.50;99.90
33093;DHT22;19456;46.104;12.908;2022-11-03T11:56:44;21.00;99.90
33093;DHT22;19456;46.104;12.908;2022-11-03T11:59:43;20.50;99.90
33093;DHT22;19456;46.104;12.908;2022-11-03T12:02:01;20.10;99.90
33093;DHT22;19456;46.104;12.908;2022-11-03T12:04:28;19.80;99.90
33093;DHT22;19456;46.104;12.908;2022-11-03T12:06:55;19.70;99.90
33093;DHT22;19456;46.104;12.908;2022-11-03T12:09:22;19.60;99.90
33093;DHT22;19456;46.104;12.908;2022-11-03T12:11:52;19.50;99.90
33093;DHT22;19456;46.104;12.908;2022-11-03T12:16:53;19.30;99.90
33093;DHT22;19456;46.104;12.908;2022-11-03T12:19:35;19.10;99.90
33093;DHT22;19456;46.104;12.908;2022-11-03T12:22:02;18.90;99.90
33093;DHT22;19456;46.104;12.908;2022-11-03T12:27:01;18.70;99.90
33093;DHT22;19456;46.104;12.908;2022-11-03T12:29:27;18.80;99.90
33093;DHT22;19456;46.104;12.908;2022-11-03T12:31:52;18.90;99.90
33093;DHT22;19456;46.104;12.908;2022-11-03T12:34:18;19.20;99.90
33093;DHT22;19456;46.104;12.908;2022-11-03T12:36:44;19.50;99.90
33093;DHT22;19456;46.104;12.908;2022-11-03T12:39:09;19.60;99.90
33093;DHT22;19456;46.104;12.908;2022-11-03T12:41:35;19.80;99.90
33093;DHT22;19456;46.104;12.908;2022-11-03T12:44:00;20.00;99.90
33093;DHT22;19456;46.104;12.908;2022-11-03T12:46:26;19.90;99.90
33093;DHT22;19456;46.104;12.908;2022-11-03T12:48:51;19.90;99.90
33093;DHT22;19456;46.104;12.908;2022-11-03T12:51:18;20.10;99.90
33093;DHT22;19456;46.104;12.908;2022-11-03T12:53:44;20.40;99.90
33093;DHT22;19456;46.104;12.908;2022-11-03T12:56:10;21.10;99.90
33093;DHT22;19456;46.104;12.908;2022-11-03T12:58:36;21.80;99.90
33093;DHT22;19456;46.104;12.908;2022-11-03T13:01:02;22.40;99.90
33093;DHT22;19456;46.104;12.908;2022-11-03T13:03:28;21.80;99.90
33093;DHT22;19456;46.104;12.908;2022-11-03T13:05:53;21.30;99.90
33093;DHT22;19456;46.104;12.908;2022-11-03T13:08:19;20.80;99.90
33093;DHT22;19456;46.104;12.908;2022-11-03T13:10:45;20.60;99.90
33093;DHT22;19456;46.104;12.908;2022-11-03T13:13:11;20.40;99.90
33093;DHT22;19456;46.104;12.908;2022-11-03T13:15:36;20.50;99.90
33093;DHT22;19456;46.104;12.908;2022-11-03T13:18:02;20.60;99.90
33093;DHT22;19456;46.104;12.908;2022-11-03T13:20:30;20.50;99.90
33093;DHT22;19456;46.104;12.908;2022-11-03T13:22:55;20.20;99.90
33093;DHT22;19456;46.104;12.908;2022-11-03T13:25:21;20.00;99.90
33093;DHT22;19456;46.104;12.908;2022-11-03T13:27:48;19.80;99.90
33093;DHT22;19456;46.104;12.908;2022-11-03T13:30:18;19.70;99.90
33093;DHT22;19456;46.104;12.908;2022-11-03T13:32:44;19.60;99.90
33093;DHT22;19456;46.104;12.908;2022-11-03T13:35:10;19.40;99.90
33093;DHT22;19456;46.104;12.908;2022-11-03T13:37:35;19.20;99.90
33093;DHT22;19456;46.104;12.908;2022-11-03T13:40:01;19.10;99.90
33093;DHT22;19456;46.104;12.908;2022-11-03T13:42:26;19.00;99.90
33093;DHT22;19456;46.104;12.908;2022-11-03T13:44:52;19.00;99.90
33093;DHT22;19456;46.104;12.908;2022-11-03T13:47:17;19.00;99.90
33093;DHT22;19456;46.104;12.908;2022-11-03T13:49:43;19.00;99.90
33093;DHT22;19456;46.104;12.908;2022-11-03T13:52:08;19.10;99.90
33093;DHT22;19456;46.104;12.908;2022-11-03T13:54:34;19.20;99.90
33093;DHT22;19456;46.104;12.908;2022-11-03T13:56:59;19.40;99.90
33093;DHT22;19456;46.104;12.908;2022-11-03T13:59:25;19.50;99.90
33093;DHT22;19456;46.104;12.908;2022-11-03T14:01:51;19.60;99.90
33093;DHT22;19456;46.104;12.908;2022-11-03T14:04:17;19.60;99.90
33093;DHT22;19456;46.104;12.908;2022-11-03T14:06:42;19.40;99.90
33093;DHT22;19456;46.104;12.908;2022-11-03T14:09:08;19.20;99.90
33093;DHT22;19456;46.104;12.908;2022-11-03T14:11:33;19.10;99.90
33093;DHT22;19456;46.104;12.908;2022-11-03T14:14:17;19.00;99.90
33093;DHT22;19456;46.104;12.908;2022-11-03T14:16:43;18.90;99.90
33093;DHT22;19456;46.104;12.908;2022-11-03T14:19:08;18.80;99.90
33093;DHT22;19456;46.104;12.908;2022-11-03T14:21:34;18.80;99.90
33093;DHT22;19456;46.104;12.908;2022-11-03T14:24:03;18.80;99.90
33093;DHT22;19456;46.104;12.908;2022-11-03T14:26:28;18.70;99.90
33093;DHT22;19456;46.104;12.908;2022-11-03T14:28:54;18.70;99.90
33093;DHT22;19456;46.104;12.908;2022-11-03T14:31:19;18.70;99.90
33093;DHT22;19456;46.104;12.908;2022-11-03T14:33:45;18.60;99.90
33093;DHT22;19456;46.104;12.908;2022-11-03T14:36:10;18.60;99.90
33093;DHT22;19456;46.104;12.908;2022-11-03T14:38:36;18.70;99.90
33093;DHT22;19456;46.104;12.908;2022-11-03T14:41:01;18.70;99.90
33093;DHT22;19456;46.104;12.908;2022-11-03T14:43:45;18.60;99.90
33093;DHT22;19456;46.104;12.908;2022-11-03T14:46:11;18.60;99.90
33093;DHT22;19456;46.104;12.908;2022-11-03T14:48:36;18.50;99.90
33093;DHT22;19456;46.104;12.908;2022-11-03T14:51:02;18.50;99.90
33093;DHT22;19456;46.104;12.908;2022-11-03T14:53:27;18.40;99.90
33093;DHT22;19456;46.104;12.908;2022-11-03T14:55:53;18.40;99.90
33093;DHT22;19456;46.104;12.908;2022-11-03T14:58:18;18.40;99.90
33093;DHT22;19456;46.104;12.908;2022-11-03T15:00:44;18.40;99.90
33093;DHT22;19456;46.104;12.908;2022-11-03T15:03:09;18.30;99.90
33093;DHT22;19456;46.104;12.908;2022-11-03T15:05:36;18.20;99.90
33093;DHT22;19456;46.104;12.908;2022-11-03T15:08:08;18.20;99.90
33093;DHT22;19456;46.104;12.908;2022-11-03T15:10:34;18.10;99.90
33093;DHT22;19456;46.104;12.908;2022-11-03T15:12:59;18.00;99.90
33093;DHT22;19456;46.104;12.908;2022-11-03T15:15:25;18.00;99.90
33093;DHT22;19456;46.104;12.908;2022-11-03T15:17:50;17.90;99.90
33093;DHT22;19456;46.104;12.908;2022-11-03T15:20:16;17.90;99.90
33093;DHT22;19456;46.104;12.908;2022-11-03T15:22:41;17.90;99.90
33093;DHT22;19456;46.104;12.908;2022-11-03T15:25:07;17.80;99.90
33093;DHT22;19456;46.104;12.908;2022-11-03T15:27:32;17.70;99.90
33093;DHT22;19456;46.104;12.908;2022-11-03T15:29:58;17.70;99.90
33093;DHT22;19456;46.104;12.908;2022-11-03T15:32:23;17.50;99.90
33093;DHT22;19456;46.104;12.908;2022-11-03T15:34:49;17.50;99.90
33093;DHT22;19456;46.104;12.908;2022-11-03T15:37:14;17.30;99.90
33093;DHT22;19456;46.104;12.908;2022-11-03T15:39:40;17.30;99.90
33093;DHT22;19456;46.104;12.908;2022-11-03T15:42:06;17.10;99.90
33093;DHT22;19456;46.104;12.908;2022-11-03T15:44:31;17.00;99.90
33093;DHT22;19456;46.104;12.908;2022-11-03T15:46:57;16.90;99.90
33093;DHT22;19456;46.104;12.908;2022-11-03T15:49:22;16.90;99.90
33093;DHT22;19456;46.104;12.908;2022-11-03T15:51:48;16.90;99.90
33093;DHT22;19456;46.104;12.908;2022-11-03T15:54:13;16.70;99.90
33093;DHT22;19456;46.104;12.908;2022-11-03T15:56:39;16.70;99.90
33093;DHT22;19456;46.104;12.908;2022-11-03T15:59:04;16.60;99.90
33093;DHT22;19456;46.104;12.908;2022-11-03T16:01:30;16.50;99.90
33093;DHT22;19456;46.104;12.908;2022-11-03T16:03:55;16.50;99.90
33093;DHT22;19456;46.104;12.908;2022-11-03T16:06:21;16.40;99.90
33093;DHT22;19456;46.104;12.908;2022-11-03T16:08:46;16.30;99.90
33093;DHT22;19456;46.104;12.908;2022-11-03T16:11:12;16.30;99.90
33093;DHT22;19456;46.104;12.908;2022-11-03T16:13:37;16.30;99.90
33093;DHT22;19456;46.104;12.908;2022-11-03T16:16:03;16.20;99.90
33093;DHT22;19456;46.104;12.908;2022-11-03T16:18:29;16.10;99.90